Time;durP1;ratioP1;P1;durP2;ratioP2;P2;SDS_P1;SDS_P2;PMS_P1;PMS_P2;Temp;Humidity;BMP_temperature;BMP_pressure;BME280_temperature;BME280_humidity;BME280_pressure;Samples;Min_cycle;Max_cycle;Signal;HPM_P1;HPM_P2
2022/09/29 00:00:25;;;;;;;5.18;1.90;;;8.60;87.20;;;;;;5031626;28;20075;-79
2022/09/29 00:02:52;;;;;;;2.10;1.73;;;8.60;87.10;;;;;;5031809;28;20395;-79
2022/09/29 00:05:18;;;;;;;3.33;1.58;;;8.60;87.20;;;;;;5031980;28;20037;-79
2022/09/29 00:07:45;;;;;;;2.58;1.95;;;8.60;87.10;;;;;;5032825;28;20387;-79
2022/09/29 00:10:12;;;;;;;3.30;2.00;;;8.60;87.10;;;;;;5031594;28;20029;-79
2022/09/29 00:12:38;;;;;;;2.97;2.30;;;8.60;87.10;;;;;;5031470;28;20021;-79
2022/09/29 00:15:05;;;;;;;3.67;1.98;;;8.60;87.10;;;;;;5031606;28;20053;-78
2022/09/29 00:17:30;;;;;;;4.68;2.40;;;8.50;87.30;;;;;;5031732;28;20053;-79
2022/09/29 00:19:56;;;;;;;3.50;2.30;;;8.60;87.30;;;;;;5031729;28;20206;-79
2022/09/29 00:22:22;;;;;;;4.15;2.92;;;8.50;87.50;;;;;;5031457;28;20025;-79
2022/09/29 00:24:48;;;;;;;4.65;2.78;;;8.60;87.60;;;;;;5033111;28;20374;-79
2022/09/29 00:27:15;;;;;;;5.20;2.53;;;8.60;87.70;;;;;;5031096;28;20021;-78
2022/09/29 00:29:41;;;;;;;3.47;2.63;;;8.60;87.60;;;;;;5014469;28;20045;-79
2022/09/29 00:32:06;;;;;;;3.58;2.35;;;8.60;87.50;;;;;;5032061;28;20120;-79
2022/09/29 00:34:32;;;;;;;4.97;2.67;;;8.60;87.40;;;;;;5032175;28;20133;-78
2022/09/29 00:36:58;;;;;;;4.18;2.25;;;8.60;87.40;;;;;;5035723;28;20520;-78
2022/09/29 00:39:23;;;;;;;4.72;2.03;;;8.60;87.50;;;;;;5036020;28;20026;-78
2022/09/29 00:41:50;;;;;;;3.60;2.10;;;8.60;87.50;;;;;;5018652;28;20481;-79
2022/09/29 00:44:18;;;;;;;2.83;1.77;;;8.50;87.50;;;;;;5035800;28;20048;-78
2022/09/29 00:47:04;;;;;;;3.50;2.10;;;8.50;87.50;;;;;;5019131;28;20036;-78
2022/09/29 00:49:41;;;;;;;3.22;1.77;;;8.60;87.50;;;;;;5018719;28;20129;-79
2022/09/29 00:52:15;;;;;;;3.97;2.40;;;8.60;87.60;;;;;;5018927;28;20032;-79
2022/09/29 00:54:48;;;;;;;4.97;2.05;;;8.60;87.60;;;;;;5036747;28;20030;-80
2022/09/29 00:57:17;;;;;;;2.90;2.20;;;8.60;87.50;;;;;;5018810;28;20026;-80
2022/09/29 00:59:49;;;;;;;5.45;2.13;;;8.50;87.60;;;;;;5019061;28;20048;-80
2022/09/29 01:02:17;;;;;;;3.83;1.88;;;8.60;87.60;;;;;;5018831;28;20033;-80
2022/09/29 01:04:44;;;;;;;2.88;1.80;;;8.60;87.60;;;;;;5018206;28;20026;-82
2022/09/29 01:07:10;;;;;;;4.40;2.08;;;8.70;87.80;;;;;;5018968;28;20029;-80
2022/09/29 01:09:38;;;;;;;2.85;2.00;;;8.70;87.80;;;;;;5018707;28;20482;-80
2022/09/29 01:12:04;;;;;;;4.75;2.13;;;8.60;87.60;;;;;;5006259;28;20029;-80
2022/09/29 01:14:31;;;;;;;3.03;2.10;;;8.60;87.70;;;;;;5026623;28;20041;-79
2022/09/29 01:16:58;;;;;;;4.45;2.10;;;8.60;87.70;;;;;;5017763;28;20394;-80
2022/09/29 01:19:40;;;;;;;3.55;2.20;;;8.70;87.80;;;;;;5034780;28;20025;-80
2022/09/29 01:22:29;;;;;;;3.53;2.10;;;8.70;87.80;;;;;;5018414;28;20029;-80
2022/09/29 01:24:57;;;;;;;2.00;1.80;;;8.60;87.60;;;;;;5018262;28;20385;-80
2022/09/29 01:27:48;;;;;;;4.65;2.35;;;8.60;87.60;;;;;;5035198;28;20511;-80
2022/09/29 01:30:36;;;;;;;2.72;2.00;;;8.60;87.70;;;;;;5019506;28;20032;-80
2022/09/29 01:33:08;;;;;;;3.63;2.72;;;8.60;87.70;;;;;;5018014;28;20477;-78
2022/09/29 01:35:40;;;;;;;4.90;3.05;;;8.70;87.60;;;;;;5018030;28;20031;-78
2022/09/29 01:38:27;;;;;;;4.38;2.90;;;8.60;87.50;;;;;;5017990;28;20048;-78
2022/09/29 01:41:17;;;;;;;3.67;2.47;;;8.60;87.60;;;;;;5017908;28;20029;-78
2022/09/29 01:43:56;;;;;;;3.45;2.25;;;8.70;87.80;;;;;;5033509;28;20037;-78
2022/09/29 01:46:45;;;;;;;5.18;2.55;;;8.70;87.90;;;;;;5034245;28;20078;-78
2022/09/29 01:49:14;;;;;;;3.97;2.20;;;8.70;87.90;;;;;;5017707;28;20384;-78
2022/09/29 01:51:57;;;;;;;3.33;1.92;;;8.80;88.10;;;;;;5034054;28;20135;-78
2022/09/29 01:54:51;;;;;;;4.05;2.03;;;8.70;88.20;;;;;;5033997;28;20029;-79
2022/09/29 01:57:31;;;;;;;3.42;2.30;;;8.80;88.20;;;;;;5012736;28;20116;-78
2022/09/29 02:00:10;;;;;;;3.65;2.08;;;8.80;88.20;;;;;;5017473;28;20435;-78
2022/09/29 02:02:59;;;;;;;1.73;1.63;;;8.80;88.30;;;;;;5017205;28;20022;-78
2022/09/29 02:05:32;;;;;;;2.00;1.80;;;8.80;88.20;;;;;;5033786;28;20080;-78
2022/09/29 02:08:05;;;;;;;4.60;2.05;;;8.80;88.10;;;;;;5033706;28;20386;-78
2022/09/29 02:10:36;;;;;;;4.30;2.03;;;8.80;88.00;;;;;;5034029;28;20101;-79
2022/09/29 02:13:06;;;;;;;2.25;1.92;;;8.80;87.90;;;;;;5033512;28;20025;-78
2022/09/29 02:15:36;;;;;;;3.58;2.67;;;8.90;88.10;;;;;;5016815;28;20057;-78
2022/09/29 02:18:09;;;;;;;3.88;3.05;;;8.90;88.10;;;;;;5033866;28;20037;-79
2022/09/29 02:20:35;;;;;;;4.20;3.08;;;8.90;88.10;;;;;;5033783;28;20021;-78
2022/09/29 02:23:00;;;;;;;3.42;3.13;;;8.80;87.90;;;;;;5033559;28;20044;-78
2022/09/29 02:25:27;;;;;;;3.17;2.67;;;8.80;88.10;;;;;;5033558;28;20488;-78
2022/09/29 02:27:53;;;;;;;3.75;2.97;;;8.80;88.20;;;;;;5033724;28;20026;-78
2022/09/29 02:30:20;;;;;;;4.88;3.10;;;8.80;88.40;;;;;;5033370;28;20508;-79
2022/09/29 02:32:47;;;;;;;4.90;2.90;;;8.80;88.50;;;;;;5033605;28;20037;-79
2022/09/29 02:35:14;;;;;;;4.47;2.55;;;8.80;88.60;;;;;;5033322;28;20425;-79
2022/09/29 02:38:18;;;;;;;2.45;2.13;;;8.80;88.70;;;;;;5033365;28;20022;-78
2022/09/29 02:40:58;;;;;;;3.90;2.65;;;8.70;88.90;;;;;;5016510;28;20091;-80
2022/09/29 02:43:57;;;;;;;3.25;2.38;;;8.70;89.20;;;;;;5033546;28;20033;-80
2022/09/29 02:46:41;;;;;;;7.15;2.70;;;8.70;89.30;;;;;;4996110;28;20026;-80
2022/09/29 02:49:27;;;;;;;3.95;3.15;;;8.70;89.40;;;;;;4995856;28;20172;-79
2022/09/29 02:52:02;;;;;;;6.65;3.30;;;8.80;89.40;;;;;;4995493;28;20221;-79
2022/09/29 02:54:34;;;;;;;4.05;3.00;;;8.70;89.60;;;;;;4994412;28;20044;-79
2022/09/29 02:57:35;;;;;;;4.45;2.72;;;8.70;89.60;;;;;;4995249;28;20034;-79
2022/09/29 03:00:08;;;;;;;5.43;2.80;;;8.70;89.50;;;;;;4995728;28;20025;-78
2022/09/29 03:02:36;;;;;;;5.07;3.22;;;8.70;89.50;;;;;;4995785;28;20120;-78
2022/09/29 03:05:06;;;;;;;3.80;2.83;;;8.70;89.60;;;;;;4995637;28;20089;-79
2022/09/29 03:07:33;;;;;;;4.28;3.00;;;8.70;89.70;;;;;;4995595;28;20064;-79
2022/09/29 03:09:58;;;;;;;4.82;2.80;;;8.70;89.80;;;;;;4995459;28;20034;-79
2022/09/29 03:12:24;;;;;;;7.00;3.88;;;8.70;90.00;;;;;;4995526;28;20041;-80
2022/09/29 03:14:51;;;;;;;5.35;3.17;;;8.70;89.80;;;;;;4983111;28;20092;-80
2022/09/29 03:17:17;;;;;;;4.28;3.28;;;8.70;89.90;;;;;;4992821;28;20331;-81
2022/09/29 03:19:43;;;;;;;4.30;3.20;;;8.60;90.00;;;;;;4992875;28;20042;-79
2022/09/29 03:22:10;;;;;;;5.05;3.00;;;8.50;90.40;;;;;;4993229;28;20169;-79
2022/09/29 03:24:36;;;;;;;4.53;3.15;;;8.50;90.80;;;;;;4976975;28;20038;-79
2022/09/29 03:27:03;;;;;;;6.00;3.58;;;8.60;90.70;;;;;;4992960;28;20026;-78
2022/09/29 03:29:28;;;;;;;6.22;3.72;;;8.50;90.90;;;;;;4992823;28;20399;-79
2022/09/29 03:31:54;;;;;;;5.03;3.38;;;8.60;90.90;;;;;;4992654;28;20025;-78
2022/09/29 03:34:20;;;;;;;5.30;3.78;;;8.60;90.90;;;;;;4993316;28;20026;-78
2022/09/29 03:36:45;;;;;;;5.68;3.63;;;8.60;90.80;;;;;;4976874;28;20394;-78
2022/09/29 03:39:12;;;;;;;4.30;2.92;;;8.60;90.70;;;;;;4992474;28;20114;-78
2022/09/29 03:41:38;;;;;;;6.57;3.42;;;8.60;90.50;;;;;;4994113;28;20026;-78
2022/09/29 03:44:04;;;;;;;4.25;2.80;;;8.70;90.70;;;;;;4976395;28;20033;-78
2022/09/29 03:46:29;;;;;;;3.97;2.55;;;8.70;90.70;;;;;;4992675;28;20176;-77
2022/09/29 03:48:55;;;;;;;3.08;2.63;;;8.70;90.70;;;;;;4992550;28;20077;-78
2022/09/29 03:51:21;;;;;;;3.65;2.55;;;8.70;90.70;;;;;;4992300;28;20034;-80
2022/09/29 03:53:47;;;;;;;3.10;2.05;;;8.70;90.60;;;;;;4992395;28;20054;-78
2022/09/29 03:56:12;;;;;;;4.07;2.00;;;8.70;90.60;;;;;;4992200;28;20072;-78
2022/09/29 03:58:38;;;;;;;2.92;2.10;;;8.70;90.40;;;;;;4992524;28;20030;-78
2022/09/29 04:01:04;;;;;;;2.28;1.85;;;8.70;90.10;;;;;;4991667;28;20387;-78
2022/09/29 04:03:29;;;;;;;3.03;1.85;;;8.70;90.00;;;;;;4976014;28;20121;-78
2022/09/29 04:05:55;;;;;;;2.80;2.38;;;8.70;89.70;;;;;;4975879;28;20309;-78
2022/09/29 04:08:22;;;;;;;4.30;1.80;;;8.70;89.40;;;;;;4991666;28;20441;-77
2022/09/29 04:10:47;;;;;;;9.95;6.53;;;8.60;89.30;;;;;;5008150;28;20026;-79
2022/09/29 04:13:14;;;;;;;9.90;5.63;;;8.70;90.20;;;;;;4992466;28;20113;-79
2022/09/29 04:15:40;;;;;;;7.22;3.15;;;8.60;89.20;;;;;;5013576;28;20046;-79
2022/09/29 04:18:06;;;;;;;4.00;2.40;;;8.50;89.20;;;;;;5031656;28;20029;-79
2022/09/29 04:20:32;;;;;;;5.43;3.00;;;8.50;89.40;;;;;;5031676;28;20025;-79
2022/09/29 04:23:00;;;;;;;3.95;2.53;;;8.40;89.60;;;;;;5032558;28;20401;-79
2022/09/29 04:25:26;;;;;;;4.60;2.85;;;8.40;89.80;;;;;;5033255;28;20040;-79
2022/09/29 04:27:52;;;;;;;2.97;2.67;;;8.40;90.20;;;;;;5031566;28;20048;-80
2022/09/29 04:30:18;;;;;;;4.47;3.40;;;8.30;90.30;;;;;;5031700;28;20025;-79
2022/09/29 04:32:44;;;;;;;5.28;2.50;;;8.40;90.30;;;;;;5031546;28;20095;-79
2022/09/29 04:35:10;;;;;;;4.95;2.85;;;8.40;90.40;;;;;;5031280;28;20025;-79
2022/09/29 04:37:37;;;;;;;4.15;3.38;;;8.40;90.40;;;;;;5031533;28;20579;-79
2022/09/29 04:40:03;;;;;;;7.25;3.10;;;8.40;90.40;;;;;;5031371;28;20420;-79
2022/09/29 04:42:29;;;;;;;5.57;2.78;;;8.40;90.20;;;;;;5031812;28;20029;-80
2022/09/29 04:44:55;;;;;;;4.72;2.90;;;8.40;89.90;;;;;;5018496;28;20104;-79
2022/09/29 04:47:22;;;;;;;4.55;2.70;;;8.40;89.60;;;;;;5031613;28;20028;-79
2022/09/29 04:49:48;;;;;;;4.00;2.80;;;8.40;89.50;;;;;;5031290;28;20521;-79
2022/09/29 04:52:13;;;;;;;4.43;2.92;;;8.40;89.70;;;;;;5031193;28;20018;-78
2022/09/29 04:54:39;;;;;;;4.68;2.85;;;8.40;89.60;;;;;;5031275;28;20465;-78
2022/09/29 04:57:06;;;;;;;4.20;2.35;;;8.40;89.60;;;;;;5031400;28;20057;-78
2022/09/29 04:59:32;;;;;;;5.35;3.88;;;8.40;89.50;;;;;;5030924;28;20021;-78
2022/09/29 05:01:58;;;;;;;7.65;3.28;;;8.40;89.20;;;;;;5031078;28;20057;-78
2022/09/29 05:04:23;;;;;;;5.63;3.47;;;8.40;89.10;;;;;;5030849;28;20057;-78
2022/09/29 05:06:49;;;;;;;4.88;2.92;;;8.40;88.90;;;;;;5031179;28;20533;-79
2022/09/29 05:09:16;;;;;;;3.63;2.65;;;8.40;88.80;;;;;;5030646;28;20038;-79
2022/09/29 05:11:42;;;;;;;4.15;2.63;;;8.50;89.00;;;;;;5031080;28;20074;-78
2022/09/29 05:14:11;;;;;;;8.50;4.47;;;8.50;89.10;;;;;;5027644;28;20050;-78
2022/09/29 05:16:36;;;;;;;6.47;3.88;;;8.50;89.00;;;;;;5027070;28;20050;-78
2022/09/29 05:19:02;;;;;;;5.28;3.17;;;8.50;88.90;;;;;;5026648;28;20033;-79
2022/09/29 05:21:28;;;;;;;6.22;3.88;;;8.50;88.80;;;;;;5014870;28;20026;-78
2022/09/29 05:23:55;;;;;;;6.05;3.17;;;8.50;88.90;;;;;;5015768;28;20053;-80
2022/09/29 05:26:21;;;;;;;5.60;3.63;;;8.50;88.90;;;;;;5030766;28;20026;-80
2022/09/29 05:28:47;;;;;;;5.57;3.10;;;8.50;89.60;;;;;;5014648;28;20048;-77
2022/09/29 05:31:14;;;;;;;2.90;2.47;;;8.50;88.60;;;;;;5014451;28;20034;-79
2022/09/29 05:33:39;;;;;;;2.95;2.53;;;8.50;88.50;;;;;;5030783;28;20025;-80
2022/09/29 05:36:09;;;;;;;4.57;2.58;;;8.40;88.40;;;;;;5030428;28;20089;-79
2022/09/29 05:38:35;;;;;;;5.60;2.70;;;8.40;88.70;;;;;;5014454;28;20072;-80
2022/09/29 05:41:22;;;;;;;4.13;2.22;;;8.40;88.90;;;;;;5030529;28;20117;-79
2022/09/29 05:43:48;;;;;;;4.70;2.90;;;8.40;88.80;;;;;;5030941;28;20474;-80
2022/09/29 05:46:15;;;;;;;7.10;2.65;;;8.40;88.80;;;;;;5031166;28;20030;-80
2022/09/29 05:48:42;;;;;;;4.68;2.03;;;8.40;88.80;;;;;;5030651;28;20034;-79
2022/09/29 05:51:20;;;;;;;7.70;2.72;;;8.40;88.50;;;;;;5014175;28;20123;-79
2022/09/29 05:53:46;;;;;;;2.33;2.10;;;8.30;88.90;;;;;;5015417;28;20126;-79
2022/09/29 05:56:16;;;;;;;2.72;2.13;;;8.30;89.00;;;;;;5030822;28;20517;-79
2022/09/29 05:58:42;;;;;;;3.80;2.10;;;8.30;89.10;;;;;;5030604;28;20030;-80
2022/09/29 06:01:16;;;;;;;7.18;2.70;;;8.40;89.20;;;;;;5030605;28;20434;-81
2022/09/29 06:03:43;;;;;;;9.67;3.50;;;8.40;89.20;;;;;;5014058;28;20467;-80
2022/09/29 06:06:16;;;;;;;6.68;3.70;;;8.40;89.10;;;;;;5030247;28;20303;-78
2022/09/29 06:08:43;;;;;;;7.70;5.15;;;8.30;89.40;;;;;;5013849;28;20100;-78
2022/09/29 06:11:12;;;;;;;10.40;4.93;;;8.40;89.30;;;;;;5029805;28;20033;-80
2022/09/29 06:13:49;;;;;;;7.43;3.90;;;8.40;89.20;;;;;;5013545;28;20029;-80
2022/09/29 06:16:18;;;;;;;6.78;2.97;;;8.40;89.20;;;;;;5030667;28;20042;-80
2022/09/29 06:18:46;;;;;;;4.45;2.78;;;8.50;89.20;;;;;;5030384;28;20395;-80
2022/09/29 06:21:14;;;;;;;4.93;2.40;;;8.50;89.50;;;;;;5030008;28;20022;-80
2022/09/29 06:23:40;;;;;;;4.82;2.90;;;8.50;89.60;;;;;;5029829;28;20088;-80
2022/09/29 06:26:09;;;;;;;4.10;2.80;;;8.70;89.70;;;;;;5014930;28;20030;-80
2022/09/29 06:28:36;;;;;;;3.47;2.70;;;8.70;89.60;;;;;;5014425;28;20133;-80
2022/09/29 06:31:06;;;;;;;6.00;3.42;;;8.80;89.40;;;;;;5029850;28;20116;-80
2022/09/29 06:33:33;;;;;;;5.93;2.92;;;8.80;89.30;;;;;;5012590;28;20022;-80
2022/09/29 06:38:50;;;;;;;4.97;3.15;;;8.80;89.20;;;;;;5014696;28;20029;-79
2022/09/29 06:41:16;;;;;;;6.78;2.60;;;8.90;89.30;;;;;;5029245;28;20022;-79
2022/09/29 06:43:42;;;;;;;8.75;3.05;;;9.00;89.30;;;;;;5029964;28;20458;-79
2022/09/29 06:46:08;;;;;;;4.32;2.80;;;9.00;89.10;;;;;;5012814;28;20475;-79
2022/09/29 06:48:33;;;;;;;6.03;2.78;;;9.10;88.70;;;;;;5014242;28;20046;-79
2022/09/29 06:50:59;;;;;;;3.55;2.70;;;9.00;87.70;;;;;;5029816;28;20525;-79
2022/09/29 06:53:26;;;;;;;4.57;2.42;;;9.00;87.80;;;;;;5013095;28;20085;-79
2022/09/29 06:55:53;;;;;;;3.15;2.25;;;9.10;87.70;;;;;;5029232;28;20474;-79
2022/09/29 06:58:20;;;;;;;3.45;2.25;;;9.10;87.70;;;;;;5029300;28;20037;-80
2022/09/29 07:00:46;;;;;;;4.53;3.00;;;9.10;88.50;;;;;;5029081;28;20030;-79
2022/09/29 07:03:11;;;;;;;5.82;3.13;;;9.20;87.60;;;;;;5028819;28;20442;-80
2022/09/29 07:05:38;;;;;;;5.50;2.80;;;9.30;87.70;;;;;;5028658;28;20022;-80
2022/09/29 07:08:05;;;;;;;4.95;2.70;;;9.30;87.70;;;;;;5029020;28;20441;-80
2022/09/29 07:10:30;;;;;;;3.45;2.47;;;9.40;87.60;;;;;;5012382;28;20030;-80
2022/09/29 07:12:56;;;;;;;6.15;2.80;;;9.40;88.40;;;;;;5028774;28;20091;-80
2022/09/29 07:15:30;;;;;;;4.47;2.60;;;9.50;87.60;;;;;;5028600;28;20101;-81
2022/09/29 07:17:57;;;;;;;4.30;1.88;;;9.60;87.40;;;;;;5029420;28;20029;-81
2022/09/29 07:20:23;;;;;;;3.42;2.15;;;9.60;87.00;;;;;;5028739;28;20514;-79
2022/09/29 07:22:48;;;;;;;4.60;2.42;;;9.80;86.80;;;;;;5029015;28;20037;-79
2022/09/29 07:25:14;;;;;;;3.35;1.85;;;9.90;86.70;;;;;;5028759;28;20050;-81
2022/09/29 07:27:41;;;;;;;3.53;2.00;;;9.90;86.40;;;;;;5028453;28;20076;-79
2022/09/29 07:30:07;;;;;;;4.00;2.63;;;10.10;86.00;;;;;;5027187;28;20042;-79
2022/09/29 07:32:33;;;;;;;4.15;2.20;;;10.10;85.60;;;;;;5028516;28;20125;-80
2022/09/29 07:35:02;;;;;;;6.07;2.97;;;10.30;85.10;;;;;;5029008;28;20065;-79
2022/09/29 07:37:29;;;;;;;5.55;3.00;;;10.30;84.60;;;;;;5012269;28;20033;-79
2022/09/29 07:39:56;;;;;;;6.50;3.40;;;10.40;84.00;;;;;;5028905;28;20433;-78
2022/09/29 07:42:23;;;;;;;4.88;3.28;;;10.40;83.70;;;;;;5028640;28;20025;-77
2022/09/29 07:44:49;;;;;;;23.13;5.20;;;10.50;83.20;;;;;;5027734;28;20026;-77
2022/09/29 07:47:15;;;;;;;8.35;3.53;;;10.60;86.00;;;;;;5028241;28;20033;-78
2022/09/29 07:49:41;;;;;;;5.07;2.67;;;10.70;87.40;;;;;;5012041;28;20041;-77
2022/09/29 07:52:08;;;;;;;4.90;2.30;;;11.00;86.50;;;;;;5028005;28;20038;-80
2022/09/29 07:54:34;;;;;;;4.57;2.35;;;11.10;84.10;;;;;;5028222;28;20053;-79
2022/09/29 07:57:02;;;;;;;9.45;3.05;;;11.40;82.70;;;;;;5011876;28;20390;-78
2022/09/29 07:59:28;;;;;;;5.18;2.42;;;11.50;80.60;;;;;;5011618;28;20041;-79
2022/09/29 08:01:54;;;;;;;7.93;3.33;;;11.60;79.80;;;;;;5011500;28;20366;-79
2022/09/29 08:04:20;;;;;;;6.18;2.97;;;11.60;77.10;;;;;;5028090;28;20025;-79
2022/09/29 08:06:46;;;;;;;6.07;2.75;;;11.60;77.50;;;;;;5028311;28;20025;-79
2022/09/29 08:09:14;;;;;;;9.90;4.88;;;11.70;78.10;;;;;;5028213;28;20045;-78
2022/09/29 08:11:41;;;;;;;12.52;5.85;;;11.70;78.10;;;;;;5028170;28;20026;-79
2022/09/29 08:14:09;;;;;;;13.88;6.03;;;11.80;77.70;;;;;;5028042;28;20132;-79
2022/09/29 08:16:36;;;;;;;10.30;4.60;;;11.90;77.90;;;;;;5028201;28;20064;-80
2022/09/29 08:19:10;;;;;;;5.20;2.88;;;12.10;77.20;;;;;;5027970;28;20069;-79
2022/09/29 08:21:38;;;;;;;5.38;3.30;;;12.10;76.30;;;;;;5012650;28;20026;-79
2022/09/29 08:24:09;;;;;;;5.65;3.38;;;12.10;75.90;;;;;;5011590;28;20052;-79
2022/09/29 08:26:36;;;;;;;7.38;3.20;;;12.30;75.80;;;;;;5027138;28;20025;-79
2022/09/29 08:29:03;;;;;;;4.88;2.60;;;12.50;74.80;;;;;;5027614;28;20486;-79
2022/09/29 08:31:28;;;;;;;3.28;2.00;;;12.60;73.80;;;;;;5027453;28;20073;-76
2022/09/29 08:33:57;;;;;;;3.70;2.35;;;12.50;73.80;;;;;;5028020;28;20038;-76
2022/09/29 08:36:23;;;;;;;4.57;3.00;;;12.40;74.10;;;;;;5027950;28;20108;-76
2022/09/29 08:38:51;;;;;;;5.80;2.97;;;12.20;74.30;;;;;;5027480;28;20451;-76
2022/09/29 08:41:33;;;;;;;6.10;2.90;;;12.10;75.40;;;;;;5030191;28;20137;-76
2022/09/29 08:44:07;;;;;;;4.80;2.70;;;11.90;75.80;;;;;;5013806;28;20367;-75
2022/09/29 08:46:43;;;;;;;2.95;2.45;;;11.60;76.20;;;;;;5013129;28;20160;-76
2022/09/29 08:49:32;;;;;;;;;;;11.60;77.10;;;;;;5013701;28;20033;-76
2022/09/29 08:52:05;;;;;;;7.38;3.25;;;11.50;77.60;;;;;;5013055;28;19905;-76
2022/09/29 08:54:40;;;;;;;5.55;2.53;;;11.40;78.50;;;;;;5029750;28;20021;-76
2022/09/29 08:57:14;;;;;;;4.25;2.30;;;11.40;79.00;;;;;;5014672;28;20029;-79
2022/09/29 08:59:41;;;;;;;4.18;2.50;;;11.50;79.50;;;;;;5025495;28;20051;-76
2022/09/29 09:02:24;;;;;;;3.63;2.35;;;11.50;79.50;;;;;;5033395;28;20029;-76
2022/09/29 09:04:58;;;;;;;4.70;3.00;;;11.50;79.00;;;;;;5017300;28;20049;-76
2022/09/29 09:07:30;;;;;;;5.43;3.40;;;11.50;78.40;;;;;;5017203;28;20481;-76
2022/09/29 09:10:18;;;;;;;3.42;2.30;;;11.50;78.30;;;;;;5016927;28;20164;-76
2022/09/29 09:13:17;;;;;;;4.50;3.13;;;11.50;78.30;;;;;;5034642;28;20568;-77
2022/09/29 09:16:06;;;;;;;6.45;3.20;;;11.50;78.50;;;;;;5032308;28;20065;-77
2022/09/29 09:19:09;;;;;;;3.42;2.60;;;11.50;78.90;;;;;;5035167;28;20025;-77
2022/09/29 09:21:41;;;;;;;9.63;2.97;;;11.60;78.80;;;;;;5016811;28;20041;-77
2022/09/29 09:24:12;;;;;;;4.43;2.75;;;11.50;78.80;;;;;;5034980;28;20083;-77
2022/09/29 09:26:44;;;;;;;5.85;2.78;;;11.60;78.90;;;;;;5033943;28;20393;-77
2022/09/29 09:29:23;;;;;;;7.85;3.30;;;11.70;79.00;;;;;;5017248;28;20033;-77
2022/09/29 09:32:09;;;;;;;4.93;2.67;;;11.70;78.40;;;;;;5017085;28;20026;-77
2022/09/29 09:34:40;;;;;;;5.25;3.38;;;11.60;77.80;;;;;;5020287;28;20120;-77
2022/09/29 09:37:12;;;;;;;6.80;2.92;;;11.40;77.80;;;;;;5015774;28;20392;-78
2022/09/29 09:39:55;;;;;;;10.45;3.90;;;11.30;79.10;;;;;;5013523;28;20029;-75
2022/09/29 09:42:26;;;;;;;11.20;4.32;;;11.30;80.50;;;;;;5016394;28;20107;-77
2022/09/29 09:44:59;;;;;;;7.75;4.25;;;11.20;81.20;;;;;;5032788;28;20025;-76
2022/09/29 09:47:37;;;;;;;6.53;3.72;;;11.20;81.40;;;;;;5032843;28;20472;-76
2022/09/29 09:50:25;;;;;;;7.85;3.75;;;11.20;80.80;;;;;;5032826;28;20130;-77
2022/09/29 09:52:51;;;;;;;6.32;3.55;;;11.30;80.70;;;;;;4999614;28;20033;-77
2022/09/29 09:55:26;;;;;;;6.85;4.10;;;11.30;80.70;;;;;;5033946;28;20033;-78
2022/09/29 09:58:25;;;;;;;7.47;4.43;;;11.40;80.60;;;;;;5015563;28;20044;-78
2022/09/29 10:00:59;;;;;;;7.80;4.38;;;11.50;80.40;;;;;;5033329;28;20030;-78
2022/09/29 10:03:27;;;;;;;7.82;3.70;;;11.50;79.80;;;;;;5015978;28;20018;-77
2022/09/29 10:05:53;;;;;;;8.90;3.95;;;11.60;79.80;;;;;;5032252;28;20044;-76
2022/09/29 10:08:30;;;;;;;7.47;3.38;;;11.60;79.50;;;;;;5015200;28;20402;-77
2022/09/29 10:10:58;;;;;;;9.68;3.80;;;11.70;79.50;;;;;;5017743;28;20387;-77
2022/09/29 10:13:27;;;;;;;7.90;4.28;;;11.70;78.60;;;;;;5017585;28;20466;-78
2022/09/29 10:16:04;;;;;;;11.00;4.40;;;11.70;78.90;;;;;;5016995;28;20057;-77
2022/09/29 10:18:36;;;;;;;7.50;4.28;;;11.70;79.20;;;;;;5016766;28;20507;-78
2022/09/29 10:21:02;;;;;;;7.95;3.80;;;11.80;78.70;;;;;;5017307;28;20025;-77
2022/09/29 10:23:33;;;;;;;9.55;4.00;;;11.80;79.00;;;;;;5016868;28;20025;-77
2022/09/29 10:26:24;;;;;;;6.00;3.45;;;11.90;79.00;;;;;;5032920;28;20022;-77
2022/09/29 10:28:50;;;;;;;6.68;3.85;;;12.00;78.30;;;;;;5016136;28;20433;-78
2022/09/29 10:31:25;;;;;;;7.50;4.32;;;12.10;78.30;;;;;;5007347;28;20018;-76
2022/09/29 10:33:57;;;;;;;6.72;3.95;;;12.10;78.20;;;;;;5013436;28;20124;-79
2022/09/29 10:36:26;;;;;;;6.68;4.10;;;12.10;78.10;;;;;;5013269;28;20486;-77
2022/09/29 10:38:53;;;;;;;6.75;3.90;;;12.20;77.80;;;;;;5013369;28;20418;-77
2022/09/29 10:41:19;;;;;;;9.05;4.82;;;12.30;77.70;;;;;;5012998;28;20101;-77
2022/09/29 10:43:47;;;;;;;5.55;4.00;;;12.40;76.90;;;;;;5012703;28;20049;-77
2022/09/29 10:46:36;;;;;;;7.18;3.78;;;12.60;75.70;;;;;;5013088;28;20022;-77
2022/09/29 10:49:20;;;;;;;5.55;3.28;;;12.70;74.10;;;;;;5012885;28;20030;-77
2022/09/29 10:52:22;;;;;;;6.15;3.25;;;12.60;75.20;;;;;;5012434;28;20121;-78
2022/09/29 10:54:59;;;;;;;7.57;3.40;;;12.70;76.00;;;;;;5012315;28;20087;-77
2022/09/29 10:57:30;;;;;;;4.45;2.83;;;12.80;73.90;;;;;;5012306;28;20046;-78
2022/09/29 10:59:57;;;;;;;4.22;2.38;;;12.90;73.70;;;;;;5012185;28;20490;-77
2022/09/29 11:02:32;;;;;;;5.38;2.92;;;13.00;72.90;;;;;;5012418;28;20029;-77
2022/09/29 11:05:16;;;;;;;3.85;2.60;;;13.20;71.70;;;;;;5012258;28;20033;-78
2022/09/29 11:07:50;;;;;;;4.95;2.70;;;13.20;72.30;;;;;;5029011;28;20025;-76
2022/09/29 11:10:34;;;;;;;4.57;2.42;;;13.20;71.50;;;;;;5013345;28;20049;-77
2022/09/29 11:13:26;;;;;;;6.05;2.83;;;13.40;71.60;;;;;;5011963;28;20021;-78
2022/09/29 11:15:51;;;;;;;8.32;3.13;;;13.50;70.70;;;;;;5012957;28;20042;-77
2022/09/29 11:18:30;;;;;;;6.82;2.75;;;13.50;70.40;;;;;;5015082;28;20017;-77
2022/09/29 11:21:11;;;;;;;4.97;2.42;;;13.30;69.50;;;;;;5031515;28;20083;-77
2022/09/29 11:23:44;;;;;;;5.25;2.40;;;13.10;69.10;;;;;;5014546;28;20045;-76
2022/09/29 11:26:28;;;;;;;3.58;2.40;;;13.20;70.00;;;;;;5015017;28;20029;-76
2022/09/29 11:29:18;;;;;;;5.57;2.60;;;13.30;71.30;;;;;;5014679;28;20048;-77
2022/09/29 11:32:07;;;;;;;4.25;2.80;;;13.40;71.70;;;;;;5015129;28;20026;-76
2022/09/29 11:34:36;;;;;;;4.78;2.90;;;13.20;70.60;;;;;;5015077;28;20021;-76
2022/09/29 11:37:20;;;;;;;4.53;2.47;;;13.10;70.70;;;;;;5033062;28;20053;-75
2022/09/29 11:40:13;;;;;;;4.35;2.30;;;13.00;70.80;;;;;;5014830;28;20465;-79
2022/09/29 11:43:04;;;;;;;3.85;2.53;;;13.00;71.20;;;;;;5015079;28;20699;-80
2022/09/29 11:45:43;;;;;;;3.40;2.30;;;13.00;71.20;;;;;;5031235;28;20494;-80
2022/09/29 11:48:36;;;;;;;3.47;2.35;;;12.90;70.90;;;;;;5030800;28;20037;-75
2022/09/29 11:51:14;;;;;;;3.63;1.90;;;13.00;70.70;;;;;;5031384;28;20360;-75
2022/09/29 11:53:50;;;;;;;4.57;2.10;;;13.10;70.80;;;;;;5015056;28;20112;-75
2022/09/29 11:56:41;;;;;;;3.67;2.00;;;13.20;70.40;;;;;;5031419;28;20029;-76
2022/09/29 11:59:36;;;;;;;3.63;2.05;;;13.30;69.80;;;;;;5031381;28;20026;-76
2022/09/29 12:02:16;;;;;;;3.15;1.75;;;13.40;68.60;;;;;;5015231;28;20116;-77
2022/09/29 12:04:45;;;;;;;2.45;1.95;;;13.40;68.90;;;;;;5015218;28;20078;-77
2022/09/29 12:07:31;;;;;;;3.33;2.40;;;13.40;68.00;;;;;;5014778;28;20112;-75
2022/09/29 12:10:28;;;;;;;3.17;2.20;;;13.20;67.80;;;;;;5032679;28;20033;-86
2022/09/29 12:13:28;;;;;;;5.13;2.00;;;13.10;67.40;;;;;;5032685;28;20069;-76
2022/09/29 12:16:17;;;;;;;4.05;2.28;;;13.20;67.50;;;;;;5014805;28;20045;-79
2022/09/29 12:18:52;;;;;;;6.40;2.05;;;13.20;68.30;;;;;;5031487;28;20033;-79
2022/09/29 12:21:36;;;;;;;;;;;13.40;68.90;;;;;;5015522;28;20025;-79
2022/09/29 12:24:10;;;;;;;9.40;2.58;;;13.50;69.10;;;;;;5014278;28;19999;-79
2022/09/29 12:26:38;;;;;;;4.53;2.17;;;13.60;67.70;;;;;;5014865;28;20031;-78
2022/09/29 12:29:15;;;;;;;5.72;2.50;;;13.60;67.20;;;;;;4998186;28;20038;-79
2022/09/29 12:31:48;;;;;;;4.13;1.90;;;13.60;68.30;;;;;;5034653;28;20028;-79
2022/09/29 12:34:32;;;;;;;4.15;2.00;;;13.70;65.50;;;;;;5036562;28;20029;-78
2022/09/29 12:37:09;;;;;;;2.10;1.85;;;13.50;66.70;;;;;;5035720;28;20056;-78
2022/09/29 12:39:53;;;;;;;4.95;2.22;;;13.50;66.70;;;;;;5034752;28;20057;-79
2022/09/29 12:42:41;;;;;;;4.50;1.95;;;13.40;66.30;;;;;;5018281;28;20080;-79
2022/09/29 12:45:25;;;;;;;6.65;2.00;;;13.30;65.60;;;;;;5036246;28;20034;-80
2022/09/29 12:48:05;;;;;;;3.35;1.60;;;13.10;66.80;;;;;;5018385;28;20034;-79
2022/09/29 12:50:38;;;;;;;4.53;2.28;;;13.20;66.40;;;;;;5035071;28;20033;-81
2022/09/29 12:53:19;;;;;;;2.60;1.90;;;13.40;66.10;;;;;;5035159;28;20480;-79
2022/09/29 12:56:00;;;;;;;4.13;2.00;;;13.40;65.70;;;;;;5018390;28;20032;-79
2022/09/29 12:58:53;;;;;;;5.90;2.42;;;13.50;65.60;;;;;;5036239;28;20029;-79
2022/09/29 13:01:32;;;;;;;3.17;2.13;;;13.40;64.90;;;;;;5035260;28;20021;-79
2022/09/29 13:04:22;;;;;;;2.65;1.70;;;13.50;65.50;;;;;;5034671;28;20501;-80
2022/09/29 13:07:15;;;;;;;3.22;1.65;;;13.70;65.10;;;;;;5018113;28;20025;-79
2022/09/29 13:10:06;;;;;;;3.38;1.60;;;13.80;62.70;;;;;;5017952;28;20481;-78
2022/09/29 13:12:32;;;;;;;2.28;1.38;;;14.10;63.10;;;;;;5018749;28;20060;-79
2022/09/29 13:15:26;;;;;;;4.32;2.50;;;14.30;62.30;;;;;;5018088;28;20057;-79
2022/09/29 13:18:42;;;;;;;6.55;2.85;;;14.10;62.10;;;;;;5034188;28;20643;-79
2022/09/29 13:21:26;;;;;;;4.32;2.00;;;14.00;61.90;;;;;;5002063;28;20485;-78
2022/09/29 13:24:04;;;;;;;7.60;2.28;;;13.60;62.30;;;;;;5018018;28;20064;-81